sensor_id;sensor_type;location;lat;lon;timestamp;P1;durP1;ratioP1;P2;durP2;ratioP2
41514;SDS011;27247;48.020;16.720;2022-12-18T00:01:58;34.63;;;15.93;;
41514;SDS011;27247;48.020;16.720;2022-12-18T00:06:11;33.83;;;15.15;;
41514;SDS011;27247;48.020;16.720;2022-12-18T00:10:23;39.83;;;16.83;;
41514;SDS011;27247;48.020;16.720;2022-12-18T00:14:33;32.20;;;15.93;;
41514;SDS011;27247;48.020;16.720;2022-12-18T00:18:44;32.65;;;15.50;;
41514;SDS011;27247;48.020;16.720;2022-12-18T00:22:54;26.77;;;14.65;;
41514;SDS011;27247;48.020;16.720;2022-12-18T00:27:04;35.90;;;14.25;;
41514;SDS011;27247;48.020;16.720;2022-12-18T00:31:16;32.22;;;15.07;;
41514;SDS011;27247;48.020;16.720;2022-12-18T00:35:28;32.28;;;15.75;;
41514;SDS011;27247;48.020;16.720;2022-12-18T00:39:38;37.83;;;15.52;;
41514;SDS011;27247;48.020;16.720;2022-12-18T00:43:49;34.43;;;15.07;;
41514;SDS011;27247;48.020;16.720;2022-12-18T00:47:59;37.23;;;14.83;;
41514;SDS011;27247;48.020;16.720;2022-12-18T00:52:09;36.67;;;15.82;;
41514;SDS011;27247;48.020;16.720;2022-12-18T00:56:20;39.50;;;16.92;;
41514;SDS011;27247;48.020;16.720;2022-12-18T01:00:30;32.78;;;14.65;;
41514;SDS011;27247;48.020;16.720;2022-12-18T01:04:40;38.55;;;16.45;;
41514;SDS011;27247;48.020;16.720;2022-12-18T01:08:51;41.33;;;16.90;;
41514;SDS011;27247;48.020;16.720;2022-12-18T01:13:01;35.05;;;17.50;;
41514;SDS011;27247;48.020;16.720;2022-12-18T01:17:12;42.20;;;16.98;;
41514;SDS011;27247;48.020;16.720;2022-12-18T01:21:22;41.20;;;18.67;;
41514;SDS011;27247;48.020;16.720;2022-12-18T01:25:35;37.78;;;16.63;;
41514;SDS011;27247;48.020;16.720;2022-12-18T01:29:46;37.20;;;16.60;;
41514;SDS011;27247;48.020;16.720;2022-12-18T01:33:57;36.63;;;17.92;;
41514;SDS011;27247;48.020;16.720;2022-12-18T01:38:10;39.10;;;18.20;;
41514;SDS011;27247;48.020;16.720;2022-12-18T01:42:20;47.92;;;19.85;;
41514;SDS011;27247;48.020;16.720;2022-12-18T01:46:31;42.97;;;20.08;;
41514;SDS011;27247;48.020;16.720;2022-12-18T01:50:41;40.80;;;18.50;;
41514;SDS011;27247;48.020;16.720;2022-12-18T01:54:53;39.45;;;17.30;;
41514;SDS011;27247;48.020;16.720;2022-12-18T01:59:05;41.45;;;17.10;;
41514;SDS011;27247;48.020;16.720;2022-12-18T02:03:19;47.67;;;18.40;;
41514;SDS011;27247;48.020;16.720;2022-12-18T02:12:28;45.45;;;19.23;;
41514;SDS011;27247;48.020;16.720;2022-12-18T02:26:49;38.70;;;17.83;;
41514;SDS011;27247;48.020;16.720;2022-12-18T02:31:01;41.15;;;16.92;;
41514;SDS011;27247;48.020;16.720;2022-12-18T02:35:24;48.30;;;18.25;;
41514;SDS011;27247;48.020;16.720;2022-12-18T02:39:39;41.85;;;17.35;;
41514;SDS011;27247;48.020;16.720;2022-12-18T02:43:55;41.20;;;17.98;;
41514;SDS011;27247;48.020;16.720;2022-12-18T02:48:07;41.97;;;17.23;;
41514;SDS011;27247;48.020;16.720;2022-12-18T02:56:49;37.30;;;17.05;;
41514;SDS011;27247;48.020;16.720;2022-12-18T03:01:09;43.03;;;17.38;;
41514;SDS011;27247;48.020;16.720;2022-12-18T03:05:28;52.58;;;21.65;;
41514;SDS011;27247;48.020;16.720;2022-12-18T03:13:56;45.75;;;17.77;;
41514;SDS011;27247;48.020;16.720;2022-12-18T03:18:10;57.97;;;23.38;;
41514;SDS011;27247;48.020;16.720;2022-12-18T03:22:27;45.63;;;18.88;;
41514;SDS011;27247;48.020;16.720;2022-12-18T03:26:43;43.63;;;19.08;;
41514;SDS011;27247;48.020;16.720;2022-12-18T03:30:56;41.63;;;16.95;;
41514;SDS011;27247;48.020;16.720;2022-12-18T03:35:10;42.75;;;19.38;;
41514;SDS011;27247;48.020;16.720;2022-12-18T03:39:27;45.47;;;22.23;;
41514;SDS011;27247;48.020;16.720;2022-12-18T03:48:01;48.20;;;19.98;;
41514;SDS011;27247;48.020;16.720;2022-12-18T03:52:17;44.03;;;19.33;;
41514;SDS011;27247;48.020;16.720;2022-12-18T03:56:36;48.90;;;19.52;;
41514;SDS011;27247;48.020;16.720;2022-12-18T04:00:50;44.72;;;19.05;;
41514;SDS011;27247;48.020;16.720;2022-12-18T04:05:04;46.38;;;20.85;;
41514;SDS011;27247;48.020;16.720;2022-12-18T04:09:17;45.42;;;19.08;;
41514;SDS011;27247;48.020;16.720;2022-12-18T04:13:30;54.38;;;21.25;;
41514;SDS011;27247;48.020;16.720;2022-12-18T04:17:47;47.28;;;21.33;;
41514;SDS011;27247;48.020;16.720;2022-12-18T04:21:58;44.58;;;19.67;;
41514;SDS011;27247;48.020;16.720;2022-12-18T04:26:09;43.60;;;19.25;;
41514;SDS011;27247;48.020;16.720;2022-12-18T04:30:19;49.85;;;19.73;;
41514;SDS011;27247;48.020;16.720;2022-12-18T04:34:29;49.85;;;18.08;;
41514;SDS011;27247;48.020;16.720;2022-12-18T04:38:40;48.03;;;18.70;;
41514;SDS011;27247;48.020;16.720;2022-12-18T04:42:50;45.77;;;20.17;;
41514;SDS011;27247;48.020;16.720;2022-12-18T04:47:01;44.92;;;19.75;;
41514;SDS011;27247;48.020;16.720;2022-12-18T04:51:11;50.05;;;19.90;;
41514;SDS011;27247;48.020;16.720;2022-12-18T04:55:21;55.13;;;23.83;;
41514;SDS011;27247;48.020;16.720;2022-12-18T04:59:32;52.97;;;22.90;;
41514;SDS011;27247;48.020;16.720;2022-12-18T05:03:42;50.73;;;21.40;;
41514;SDS011;27247;48.020;16.720;2022-12-18T05:07:53;53.47;;;21.17;;
41514;SDS011;27247;48.020;16.720;2022-12-18T05:12:03;59.80;;;23.95;;
41514;SDS011;27247;48.020;16.720;2022-12-18T05:16:14;66.30;;;24.63;;
41514;SDS011;27247;48.020;16.720;2022-12-18T05:20:24;139.43;;;60.55;;
41514;SDS011;27247;48.020;16.720;2022-12-18T05:24:35;133.48;;;69.15;;
41514;SDS011;27247;48.020;16.720;2022-12-18T05:28:45;135.18;;;70.72;;
41514;SDS011;27247;48.020;16.720;2022-12-18T05:32:56;67.15;;;28.25;;
41514;SDS011;27247;48.020;16.720;2022-12-18T05:37:07;65.38;;;24.80;;
41514;SDS011;27247;48.020;16.720;2022-12-18T05:41:17;83.53;;;35.80;;
41514;SDS011;27247;48.020;16.720;2022-12-18T05:45:27;81.03;;;32.60;;
41514;SDS011;27247;48.020;16.720;2022-12-18T05:49:38;57.88;;;25.02;;
41514;SDS011;27247;48.020;16.720;2022-12-18T05:53:48;55.95;;;23.92;;
41514;SDS011;27247;48.020;16.720;2022-12-18T05:57:58;44.38;;;20.45;;
41514;SDS011;27247;48.020;16.720;2022-12-18T06:02:09;58.47;;;23.40;;
41514;SDS011;27247;48.020;16.720;2022-12-18T06:06:20;63.63;;;30.92;;
41514;SDS011;27247;48.020;16.720;2022-12-18T06:10:35;65.35;;;31.52;;
41514;SDS011;27247;48.020;16.720;2022-12-18T06:14:45;59.72;;;24.13;;
41514;SDS011;27247;48.020;16.720;2022-12-18T06:18:56;102.88;;;42.35;;
41514;SDS011;27247;48.020;16.720;2022-12-18T06:23:09;117.20;;;47.45;;
41514;SDS011;27247;48.020;16.720;2022-12-18T06:27:20;149.18;;;54.92;;
41514;SDS011;27247;48.020;16.720;2022-12-18T06:31:30;151.53;;;52.10;;
41514;SDS011;27247;48.020;16.720;2022-12-18T06:35:41;72.93;;;30.52;;
41514;SDS011;27247;48.020;16.720;2022-12-18T06:39:52;52.40;;;21.10;;
41514;SDS011;27247;48.020;16.720;2022-12-18T06:44:03;54.17;;;20.90;;
41514;SDS011;27247;48.020;16.720;2022-12-18T06:48:13;52.67;;;22.70;;
41514;SDS011;27247;48.020;16.720;2022-12-18T06:52:23;56.50;;;23.20;;
41514;SDS011;27247;48.020;16.720;2022-12-18T06:56:34;54.17;;;22.85;;
41514;SDS011;27247;48.020;16.720;2022-12-18T07:00:44;53.30;;;21.08;;
41514;SDS011;27247;48.020;16.720;2022-12-18T07:04:55;61.22;;;24.00;;
41514;SDS011;27247;48.020;16.720;2022-12-18T07:09:05;50.67;;;21.02;;
41514;SDS011;27247;48.020;16.720;2022-12-18T07:13:16;53.53;;;21.77;;
41514;SDS011;27247;48.020;16.720;2022-12-18T07:17:26;53.53;;;21.58;;
41514;SDS011;27247;48.020;16.720;2022-12-18T07:21:37;61.13;;;25.67;;
41514;SDS011;27247;48.020;16.720;2022-12-18T07:25:47;56.08;;;23.17;;
41514;SDS011;27247;48.020;16.720;2022-12-18T07:29:57;60.03;;;23.90;;
41514;SDS011;27247;48.020;16.720;2022-12-18T07:34:11;54.17;;;22.75;;
41514;SDS011;27247;48.020;16.720;2022-12-18T07:38:23;57.70;;;24.80;;
41514;SDS011;27247;48.020;16.720;2022-12-18T07:42:33;52.72;;;22.35;;
41514;SDS011;27247;48.020;16.720;2022-12-18T07:46:44;51.38;;;20.52;;
41514;SDS011;27247;48.020;16.720;2022-12-18T07:50:58;46.67;;;21.53;;
41514;SDS011;27247;48.020;16.720;2022-12-18T07:55:14;55.83;;;23.30;;
41514;SDS011;27247;48.020;16.720;2022-12-18T07:59:24;68.10;;;28.42;;
41514;SDS011;27247;48.020;16.720;2022-12-18T08:03:34;67.70;;;26.02;;
41514;SDS011;27247;48.020;16.720;2022-12-18T08:07:45;67.35;;;29.20;;
41514;SDS011;27247;48.020;16.720;2022-12-18T08:11:56;80.35;;;32.13;;
41514;SDS011;27247;48.020;16.720;2022-12-18T08:16:06;72.00;;;30.20;;
41514;SDS011;27247;48.020;16.720;2022-12-18T08:20:17;78.18;;;34.22;;
41514;SDS011;27247;48.020;16.720;2022-12-18T08:24:28;82.57;;;35.13;;
41514;SDS011;27247;48.020;16.720;2022-12-18T08:28:38;68.15;;;28.40;;
41514;SDS011;27247;48.020;16.720;2022-12-18T08:32:51;57.08;;;24.95;;
41514;SDS011;27247;48.020;16.720;2022-12-18T08:37:02;64.13;;;25.95;;
41514;SDS011;27247;48.020;16.720;2022-12-18T08:41:14;60.45;;;28.05;;
41514;SDS011;27247;48.020;16.720;2022-12-18T08:45:26;68.53;;;28.98;;
41514;SDS011;27247;48.020;16.720;2022-12-18T08:49:36;65.60;;;28.70;;
41514;SDS011;27247;48.020;16.720;2022-12-18T08:53:46;70.93;;;30.30;;
41514;SDS011;27247;48.020;16.720;2022-12-18T08:57:57;67.90;;;28.52;;
41514;SDS011;27247;48.020;16.720;2022-12-18T09:02:09;86.53;;;39.53;;
41514;SDS011;27247;48.020;16.720;2022-12-18T09:06:21;77.88;;;35.83;;
41514;SDS011;27247;48.020;16.720;2022-12-18T09:10:32;76.13;;;30.60;;
41514;SDS011;27247;48.020;16.720;2022-12-18T09:14:43;77.95;;;29.80;;
41514;SDS011;27247;48.020;16.720;2022-12-18T09:18:55;72.97;;;27.65;;
41514;SDS011;27247;48.020;16.720;2022-12-18T09:23:09;72.25;;;28.60;;
41514;SDS011;27247;48.020;16.720;2022-12-18T09:27:20;71.32;;;28.60;;
41514;SDS011;27247;48.020;16.720;2022-12-18T09:31:30;69.33;;;29.20;;
41514;SDS011;27247;48.020;16.720;2022-12-18T09:35:41;69.23;;;26.67;;
41514;SDS011;27247;48.020;16.720;2022-12-18T09:39:53;68.10;;;26.65;;
41514;SDS011;27247;48.020;16.720;2022-12-18T09:48:40;62.55;;;27.33;;
41514;SDS011;27247;48.020;16.720;2022-12-18T09:52:54;63.97;;;26.67;;
41514;SDS011;27247;48.020;16.720;2022-12-18T09:57:15;71.80;;;28.13;;
41514;SDS011;27247;48.020;16.720;2022-12-18T10:01:30;136.07;;;41.13;;
41514;SDS011;27247;48.020;16.720;2022-12-18T10:23:33;90.80;;;31.73;;
41514;SDS011;27247;48.020;16.720;2022-12-18T10:28:10;141.55;;;41.25;;
41514;SDS011;27247;48.020;16.720;2022-12-18T10:32:24;218.20;;;54.53;;
41514;SDS011;27247;48.020;16.720;2022-12-18T10:36:36;74.95;;;27.17;;
41514;SDS011;27247;48.020;16.720;2022-12-18T10:45:24;70.72;;;27.15;;
41514;SDS011;27247;48.020;16.720;2022-12-18T10:49:34;64.90;;;24.77;;
41514;SDS011;27247;48.020;16.720;2022-12-18T10:53:50;73.88;;;30.23;;
41514;SDS011;27247;48.020;16.720;2022-12-18T11:02:36;146.88;;;48.30;;
41514;SDS011;27247;48.020;16.720;2022-12-18T11:07:01;84.55;;;34.65;;
41514;SDS011;27247;48.020;16.720;2022-12-18T11:11:19;144.40;;;49.35;;
41514;SDS011;27247;48.020;16.720;2022-12-18T11:15:31;83.72;;;31.50;;
41514;SDS011;27247;48.020;16.720;2022-12-18T11:19:43;67.55;;;25.48;;
41514;SDS011;27247;48.020;16.720;2022-12-18T11:23:53;66.93;;;26.23;;
41514;SDS011;27247;48.020;16.720;2022-12-18T11:36:49;70.30;;;26.33;;
41514;SDS011;27247;48.020;16.720;2022-12-18T11:41:05;62.47;;;24.65;;
41514;SDS011;27247;48.020;16.720;2022-12-18T11:45:37;75.22;;;25.88;;
41514;SDS011;27247;48.020;16.720;2022-12-18T11:49:58;70.53;;;24.85;;
41514;SDS011;27247;48.020;16.720;2022-12-18T11:54:14;61.80;;;24.23;;
41514;SDS011;27247;48.020;16.720;2022-12-18T11:58:47;81.40;;;29.55;;
41514;SDS011;27247;48.020;16.720;2022-12-18T12:07:35;63.08;;;25.70;;
41514;SDS011;27247;48.020;16.720;2022-12-18T12:12:02;65.45;;;24.50;;
41514;SDS011;27247;48.020;16.720;2022-12-18T12:29:55;63.50;;;25.60;;
41514;SDS011;27247;48.020;16.720;2022-12-18T12:39:01;79.82;;;31.45;;
41514;SDS011;27247;48.020;16.720;2022-12-18T12:47:50;74.18;;;27.27;;
41514;SDS011;27247;48.020;16.720;2022-12-18T12:52:07;74.20;;;28.10;;
41514;SDS011;27247;48.020;16.720;2022-12-18T12:56:22;74.70;;;27.58;;
41514;SDS011;27247;48.020;16.720;2022-12-18T13:00:40;74.28;;;27.90;;
41514;SDS011;27247;48.020;16.720;2022-12-18T13:04:58;83.35;;;30.85;;
41514;SDS011;27247;48.020;16.720;2022-12-18T13:09:33;73.97;;;27.98;;
41514;SDS011;27247;48.020;16.720;2022-12-18T13:13:49;76.68;;;29.02;;
41514;SDS011;27247;48.020;16.720;2022-12-18T13:18:04;83.53;;;30.67;;
41514;SDS011;27247;48.020;16.720;2022-12-18T13:22:22;65.38;;;25.88;;
41514;SDS011;27247;48.020;16.720;2022-12-18T13:26:34;70.47;;;27.80;;
41514;SDS011;27247;48.020;16.720;2022-12-18T13:30:49;70.40;;;26.92;;
41514;SDS011;27247;48.020;16.720;2022-12-18T13:39:33;70.30;;;25.65;;
41514;SDS011;27247;48.020;16.720;2022-12-18T13:43:47;78.35;;;26.42;;
41514;SDS011;27247;48.020;16.720;2022-12-18T13:47:59;71.78;;;28.13;;
41514;SDS011;27247;48.020;16.720;2022-12-18T13:52:26;68.40;;;25.80;;
41514;SDS011;27247;48.020;16.720;2022-12-18T13:56:43;88.80;;;32.15;;
41514;SDS011;27247;48.020;16.720;2022-12-18T14:00:55;79.35;;;29.67;;
41514;SDS011;27247;48.020;16.720;2022-12-18T14:05:20;95.38;;;33.25;;
41514;SDS011;27247;48.020;16.720;2022-12-18T14:09:35;81.85;;;31.00;;
41514;SDS011;27247;48.020;16.720;2022-12-18T14:13:49;73.90;;;29.05;;
41514;SDS011;27247;48.020;16.720;2022-12-18T14:22:25;88.72;;;30.50;;
41514;SDS011;27247;48.020;16.720;2022-12-18T14:26:39;68.93;;;28.17;;
41514;SDS011;27247;48.020;16.720;2022-12-18T14:30:50;81.63;;;29.38;;
41514;SDS011;27247;48.020;16.720;2022-12-18T14:35:12;85.03;;;32.92;;
41514;SDS011;27247;48.020;16.720;2022-12-18T14:39:23;86.93;;;34.35;;
41514;SDS011;27247;48.020;16.720;2022-12-18T14:43:36;72.53;;;27.13;;
41514;SDS011;27247;48.020;16.720;2022-12-18T14:47:47;80.90;;;29.70;;
41514;SDS011;27247;48.020;16.720;2022-12-18T14:51:59;79.18;;;30.50;;
41514;SDS011;27247;48.020;16.720;2022-12-18T14:56:15;78.70;;;29.95;;
41514;SDS011;27247;48.020;16.720;2022-12-18T15:00:37;76.88;;;29.25;;
41514;SDS011;27247;48.020;16.720;2022-12-18T15:05:02;72.57;;;30.27;;
41514;SDS011;27247;48.020;16.720;2022-12-18T15:09:28;79.78;;;31.58;;
41514;SDS011;27247;48.020;16.720;2022-12-18T15:13:39;62.58;;;25.70;;
41514;SDS011;27247;48.020;16.720;2022-12-18T15:17:56;75.22;;;28.58;;
41514;SDS011;27247;48.020;16.720;2022-12-18T15:22:17;73.75;;;27.23;;
41514;SDS011;27247;48.020;16.720;2022-12-18T15:26:35;64.40;;;24.52;;
41514;SDS011;27247;48.020;16.720;2022-12-18T15:35:22;65.95;;;27.17;;
41514;SDS011;27247;48.020;16.720;2022-12-18T15:39:35;61.80;;;24.60;;
41514;SDS011;27247;48.020;16.720;2022-12-18T15:43:46;60.22;;;23.83;;
41514;SDS011;27247;48.020;16.720;2022-12-18T15:47:59;45.85;;;19.92;;
41514;SDS011;27247;48.020;16.720;2022-12-18T15:52:15;40.88;;;18.90;;
41514;SDS011;27247;48.020;16.720;2022-12-18T15:56:35;42.83;;;19.10;;
41514;SDS011;27247;48.020;16.720;2022-12-18T16:01:05;44.35;;;20.15;;
41514;SDS011;27247;48.020;16.720;2022-12-18T16:05:24;43.90;;;19.45;;
41514;SDS011;27247;48.020;16.720;2022-12-18T16:13:47;44.58;;;18.58;;
41514;SDS011;27247;48.020;16.720;2022-12-18T16:17:57;51.22;;;20.52;;
41514;SDS011;27247;48.020;16.720;2022-12-18T16:22:15;46.58;;;19.48;;
41514;SDS011;27247;48.020;16.720;2022-12-18T16:26:31;47.92;;;21.25;;
41514;SDS011;27247;48.020;16.720;2022-12-18T16:30:42;48.00;;;20.95;;
41514;SDS011;27247;48.020;16.720;2022-12-18T16:34:52;45.45;;;19.92;;
41514;SDS011;27247;48.020;16.720;2022-12-18T16:39:03;47.85;;;22.00;;
41514;SDS011;27247;48.020;16.720;2022-12-18T16:43:15;49.58;;;21.70;;
41514;SDS011;27247;48.020;16.720;2022-12-18T16:47:25;44.70;;;21.02;;
41514;SDS011;27247;48.020;16.720;2022-12-18T16:51:36;48.65;;;20.38;;
41514;SDS011;27247;48.020;16.720;2022-12-18T16:55:53;46.10;;;21.23;;
41514;SDS011;27247;48.020;16.720;2022-12-18T17:00:05;49.37;;;22.30;;
41514;SDS011;27247;48.020;16.720;2022-12-18T17:04:17;48.45;;;21.17;;
41514;SDS011;27247;48.020;16.720;2022-12-18T17:08:29;49.30;;;21.05;;
41514;SDS011;27247;48.020;16.720;2022-12-18T17:12:40;47.55;;;21.30;;
41514;SDS011;27247;48.020;16.720;2022-12-18T17:16:52;41.55;;;20.23;;
41514;SDS011;27247;48.020;16.720;2022-12-18T17:21:04;48.88;;;21.25;;
41514;SDS011;27247;48.020;16.720;2022-12-18T17:25:18;49.70;;;21.48;;
41514;SDS011;27247;48.020;16.720;2022-12-18T17:29:29;47.47;;;21.35;;
41514;SDS011;27247;48.020;16.720;2022-12-18T17:33:42;55.10;;;23.02;;
41514;SDS011;27247;48.020;16.720;2022-12-18T17:37:52;48.75;;;21.83;;
41514;SDS011;27247;48.020;16.720;2022-12-18T17:42:03;50.70;;;21.73;;
41514;SDS011;27247;48.020;16.720;2022-12-18T17:46:15;46.33;;;22.65;;
41514;SDS011;27247;48.020;16.720;2022-12-18T17:50:27;45.88;;;20.67;;
41514;SDS011;27247;48.020;16.720;2022-12-18T17:54:38;48.45;;;22.55;;
41514;SDS011;27247;48.020;16.720;2022-12-18T17:58:51;53.03;;;21.35;;
41514;SDS011;27247;48.020;16.720;2022-12-18T18:03:01;48.17;;;21.45;;
41514;SDS011;27247;48.020;16.720;2022-12-18T18:07:13;48.05;;;22.38;;
41514;SDS011;27247;48.020;16.720;2022-12-18T18:11:24;54.78;;;22.65;;
41514;SDS011;27247;48.020;16.720;2022-12-18T18:15:56;55.28;;;25.45;;
41514;SDS011;27247;48.020;16.720;2022-12-18T18:20:08;53.33;;;23.50;;
41514;SDS011;27247;48.020;16.720;2022-12-18T18:24:21;53.05;;;23.35;;
41514;SDS011;27247;48.020;16.720;2022-12-18T18:28:34;60.63;;;25.50;;
41514;SDS011;27247;48.020;16.720;2022-12-18T18:32:45;60.00;;;25.58;;
41514;SDS011;27247;48.020;16.720;2022-12-18T18:36:56;58.00;;;24.30;;
41514;SDS011;27247;48.020;16.720;2022-12-18T18:41:08;59.17;;;24.83;;
41514;SDS011;27247;48.020;16.720;2022-12-18T18:45:20;71.30;;;26.98;;
41514;SDS011;27247;48.020;16.720;2022-12-18T18:49:31;64.65;;;27.70;;
41514;SDS011;27247;48.020;16.720;2022-12-18T18:53:43;63.83;;;27.35;;
41514;SDS011;27247;48.020;16.720;2022-12-18T18:57:54;60.72;;;27.85;;
41514;SDS011;27247;48.020;16.720;2022-12-18T19:02:07;65.45;;;26.90;;
41514;SDS011;27247;48.020;16.720;2022-12-18T19:06:25;63.38;;;26.38;;
41514;SDS011;27247;48.020;16.720;2022-12-18T19:10:38;58.35;;;26.63;;
41514;SDS011;27247;48.020;16.720;2022-12-18T19:14:52;63.78;;;25.63;;
41514;SDS011;27247;48.020;16.720;2022-12-18T19:19:03;55.15;;;23.38;;
41514;SDS011;27247;48.020;16.720;2022-12-18T19:23:14;59.67;;;24.67;;
41514;SDS011;27247;48.020;16.720;2022-12-18T19:27:25;67.72;;;25.70;;
41514;SDS011;27247;48.020;16.720;2022-12-18T19:31:35;60.50;;;26.63;;
41514;SDS011;27247;48.020;16.720;2022-12-18T19:35:47;70.20;;;26.60;;
41514;SDS011;27247;48.020;16.720;2022-12-18T19:39:58;63.08;;;26.10;;
41514;SDS011;27247;48.020;16.720;2022-12-18T19:44:09;63.30;;;27.20;;
41514;SDS011;27247;48.020;16.720;2022-12-18T19:48:21;62.80;;;27.85;;
41514;SDS011;27247;48.020;16.720;2022-12-18T19:52:32;65.45;;;26.40;;
41514;SDS011;27247;48.020;16.720;2022-12-18T19:56:43;65.13;;;27.45;;
41514;SDS011;27247;48.020;16.720;2022-12-18T20:00:53;60.75;;;26.88;;
41514;SDS011;27247;48.020;16.720;2022-12-18T20:05:05;69.47;;;28.80;;
41514;SDS011;27247;48.020;16.720;2022-12-18T20:09:20;65.75;;;26.77;;
41514;SDS011;27247;48.020;16.720;2022-12-18T20:13:31;66.75;;;26.83;;
41514;SDS011;27247;48.020;16.720;2022-12-18T20:17:42;70.32;;;27.50;;
41514;SDS011;27247;48.020;16.720;2022-12-18T20:21:52;64.95;;;26.77;;
41514;SDS011;27247;48.020;16.720;2022-12-18T20:26:03;70.97;;;28.27;;
41514;SDS011;27247;48.020;16.720;2022-12-18T20:30:13;69.03;;;28.10;;
41514;SDS011;27247;48.020;16.720;2022-12-18T20:34:24;63.35;;;27.92;;
41514;SDS011;27247;48.020;16.720;2022-12-18T20:38:34;70.28;;;28.30;;
41514;SDS011;27247;48.020;16.720;2022-12-18T20:42:47;66.30;;;27.00;;
41514;SDS011;27247;48.020;16.720;2022-12-18T20:46:58;71.85;;;27.77;;
41514;SDS011;27247;48.020;16.720;2022-12-18T20:51:15;61.63;;;24.65;;
41514;SDS011;27247;48.020;16.720;2022-12-18T20:55:28;65.97;;;25.55;;
41514;SDS011;27247;48.020;16.720;2022-12-18T20:59:39;57.38;;;25.02;;
41514;SDS011;27247;48.020;16.720;2022-12-18T21:03:49;62.05;;;26.52;;
41514;SDS011;27247;48.020;16.720;2022-12-18T21:08:00;61.55;;;25.83;;
41514;SDS011;27247;48.020;16.720;2022-12-18T21:12:12;56.65;;;24.40;;
41514;SDS011;27247;48.020;16.720;2022-12-18T21:16:42;66.35;;;25.02;;
41514;SDS011;27247;48.020;16.720;2022-12-18T21:20:53;62.08;;;25.13;;
41514;SDS011;27247;48.020;16.720;2022-12-18T21:25:04;63.72;;;24.20;;
41514;SDS011;27247;48.020;16.720;2022-12-18T21:29:24;62.50;;;26.00;;
41514;SDS011;27247;48.020;16.720;2022-12-18T21:33:35;61.90;;;25.05;;
41514;SDS011;27247;48.020;16.720;2022-12-18T21:37:45;59.15;;;23.52;;
41514;SDS011;27247;48.020;16.720;2022-12-18T21:41:56;67.53;;;24.43;;
41514;SDS011;27247;48.020;16.720;2022-12-18T21:46:25;55.90;;;24.77;;
41514;SDS011;27247;48.020;16.720;2022-12-18T21:50:36;62.08;;;23.48;;
41514;SDS011;27247;48.020;16.720;2022-12-18T21:54:46;54.72;;;24.63;;
41514;SDS011;27247;48.020;16.720;2022-12-18T21:58:56;63.90;;;24.75;;
41514;SDS011;27247;48.020;16.720;2022-12-18T22:03:07;61.83;;;24.42;;
41514;SDS011;27247;48.020;16.720;2022-12-18T22:07:17;57.22;;;24.90;;
41514;SDS011;27247;48.020;16.720;2022-12-18T22:11:27;62.42;;;24.80;;
41514;SDS011;27247;48.020;16.720;2022-12-18T22:15:38;60.08;;;25.05;;
41514;SDS011;27247;48.020;16.720;2022-12-18T22:19:48;55.03;;;23.65;;
41514;SDS011;27247;48.020;16.720;2022-12-18T22:28:25;65.90;;;26.63;;
41514;SDS011;27247;48.020;16.720;2022-12-18T22:37:04;55.65;;;23.98;;
41514;SDS011;27247;48.020;16.720;2022-12-18T22:41:15;71.68;;;27.75;;
41514;SDS011;27247;48.020;16.720;2022-12-18T22:45:26;66.13;;;26.88;;
41514;SDS011;27247;48.020;16.720;2022-12-18T22:49:37;63.80;;;27.00;;
41514;SDS011;27247;48.020;16.720;2022-12-18T22:53:47;67.97;;;26.70;;
41514;SDS011;27247;48.020;16.720;2022-12-18T22:57:58;66.82;;;27.90;;
41514;SDS011;27247;48.020;16.720;2022-12-18T23:02:08;71.78;;;27.73;;
41514;SDS011;27247;48.020;16.720;2022-12-18T23:06:19;74.60;;;31.13;;
41514;SDS011;27247;48.020;16.720;2022-12-18T23:10:31;67.32;;;30.70;;
41514;SDS011;27247;48.020;16.720;2022-12-18T23:14:41;67.28;;;28.85;;
41514;SDS011;27247;48.020;16.720;2022-12-18T23:18:53;68.35;;;27.88;;
41514;SDS011;27247;48.020;16.720;2022-12-18T23:23:04;67.95;;;27.08;;
41514;SDS011;27247;48.020;16.720;2022-12-18T23:27:17;67.55;;;27.52;;
41514;SDS011;27247;48.020;16.720;2022-12-18T23:31:31;74.78;;;27.85;;
41514;SDS011;27247;48.020;16.720;2022-12-18T23:35:46;66.97;;;27.73;;
41514;SDS011;27247;48.020;16.720;2022-12-18T23:39:56;74.57;;;28.75;;
41514;SDS011;27247;48.020;16.720;2022-12-18T23:44:06;69.03;;;28.80;;
41514;SDS011;27247;48.020;16.720;2022-12-18T23:48:19;69.97;;;27.27;;
41514;SDS011;27247;48.020;16.720;2022-12-18T23:52:30;76.55;;;30.00;;
41514;SDS011;27247;48.020;16.720;2022-12-18T23:56:40;74.30;;;30.08;;
